sensor_id;sensor_type;location;lat;lon;timestamp;temperature;humidity
25973;DHT22;13765;51.166;4.466;2023-07-28T00:00:18;18.60;99.90
25973;DHT22;13765;51.166;4.466;2023-07-28T00:02:44;18.60;99.90
25973;DHT22;13765;51.166;4.466;2023-07-28T00:05:09;18.60;99.90
25973;DHT22;13765;51.166;4.466;2023-07-28T00:07:38;18.50;99.90
25973;DHT22;13765;51.166;4.466;2023-07-28T00:10:08;18.50;99.90
25973;DHT22;13765;51.166;4.466;2023-07-28T00:12:39;18.60;99.90
25973;DHT22;13765;51.166;4.466;2023-07-28T00:15:07;18.60;99.90
25973;DHT22;13765;51.166;4.466;2023-07-28T00:17:36;18.60;99.90
25973;DHT22;13765;51.166;4.466;2023-07-28T00:20:04;18.60;99.90
25973;DHT22;13765;51.166;4.466;2023-07-28T00:22:35;18.60;99.90
25973;DHT22;13765;51.166;4.466;2023-07-28T00:25:01;18.60;99.90
25973;DHT22;13765;51.166;4.466;2023-07-28T00:27:29;18.70;99.90
25973;DHT22;13765;51.166;4.466;2023-07-28T00:29:56;18.70;99.90
25973;DHT22;13765;51.166;4.466;2023-07-28T00:32:22;18.70;99.90
25973;DHT22;13765;51.166;4.466;2023-07-28T00:34:52;18.60;99.90
25973;DHT22;13765;51.166;4.466;2023-07-28T00:37:21;18.50;99.90
25973;DHT22;13765;51.166;4.466;2023-07-28T00:39:49;18.50;99.90
25973;DHT22;13765;51.166;4.466;2023-07-28T00:42:14;18.50;99.90
25973;DHT22;13765;51.166;4.466;2023-07-28T00:44:40;18.50;99.90
25973;DHT22;13765;51.166;4.466;2023-07-28T00:47:06;18.50;99.90
25973;DHT22;13765;51.166;4.466;2023-07-28T00:49:32;18.50;99.90
25973;DHT22;13765;51.166;4.466;2023-07-28T00:52:00;18.40;99.90
25973;DHT22;13765;51.166;4.466;2023-07-28T00:54:28;18.40;99.90
25973;DHT22;13765;51.166;4.466;2023-07-28T00:56:53;18.50;99.90
25973;DHT22;13765;51.166;4.466;2023-07-28T00:59:21;18.50;99.90
25973;DHT22;13765;51.166;4.466;2023-07-28T01:01:49;18.60;99.90
25973;DHT22;13765;51.166;4.466;2023-07-28T01:04:15;18.60;99.90
25973;DHT22;13765;51.166;4.466;2023-07-28T01:09:29;18.60;99.90
25973;DHT22;13765;51.166;4.466;2023-07-28T01:11:58;18.60;99.90
25973;DHT22;13765;51.166;4.466;2023-07-28T01:14:24;18.60;99.90
25973;DHT22;13765;51.166;4.466;2023-07-28T01:16:50;18.60;99.90
25973;DHT22;13765;51.166;4.466;2023-07-28T01:19:20;18.60;99.90
25973;DHT22;13765;51.166;4.466;2023-07-28T01:27:29;18.50;99.90
25973;DHT22;13765;51.166;4.466;2023-07-28T01:29:55;18.60;99.90
25973;DHT22;13765;51.166;4.466;2023-07-28T01:32:22;18.60;99.90
25973;DHT22;13765;51.166;4.466;2023-07-28T01:34:48;18.60;99.90
25973;DHT22;13765;51.166;4.466;2023-07-28T01:37:16;18.70;99.90
25973;DHT22;13765;51.166;4.466;2023-07-28T01:39:42;18.70;99.90
25973;DHT22;13765;51.166;4.466;2023-07-28T01:42:08;18.70;99.90
25973;DHT22;13765;51.166;4.466;2023-07-28T01:44:33;18.80;99.90
25973;DHT22;13765;51.166;4.466;2023-07-28T01:46:59;18.70;99.90
25973;DHT22;13765;51.166;4.466;2023-07-28T01:49:27;18.80;99.90
25973;DHT22;13765;51.166;4.466;2023-07-28T01:51:55;18.80;99.90
25973;DHT22;13765;51.166;4.466;2023-07-28T01:54:21;18.70;99.90
25973;DHT22;13765;51.166;4.466;2023-07-28T01:56:46;18.70;99.90
25973;DHT22;13765;51.166;4.466;2023-07-28T01:59:12;18.70;99.90
25973;DHT22;13765;51.166;4.466;2023-07-28T02:01:39;18.80;99.90
25973;DHT22;13765;51.166;4.466;2023-07-28T02:04:07;18.70;99.90
25973;DHT22;13765;51.166;4.466;2023-07-28T02:06:33;18.80;99.90
25973;DHT22;13765;51.166;4.466;2023-07-28T02:08:58;18.80;99.90
25973;DHT22;13765;51.166;4.466;2023-07-28T02:11:24;18.80;99.90
25973;DHT22;13765;51.166;4.466;2023-07-28T02:13:52;18.70;99.90
25973;DHT22;13765;51.166;4.466;2023-07-28T02:16:17;18.80;99.90
25973;DHT22;13765;51.166;4.466;2023-07-28T02:18:43;18.80;99.90
25973;DHT22;13765;51.166;4.466;2023-07-28T02:21:09;18.70;99.90
25973;DHT22;13765;51.166;4.466;2023-07-28T02:23:36;18.70;99.90
25973;DHT22;13765;51.166;4.466;2023-07-28T02:26:02;18.70;99.90
25973;DHT22;13765;51.166;4.466;2023-07-28T02:28:30;18.70;99.90
25973;DHT22;13765;51.166;4.466;2023-07-28T02:30:56;18.70;99.90
25973;DHT22;13765;51.166;4.466;2023-07-28T02:33:21;18.70;99.90
25973;DHT22;13765;51.166;4.466;2023-07-28T02:35:52;18.70;99.90
25973;DHT22;13765;51.166;4.466;2023-07-28T02:38:18;18.90;99.90
25973;DHT22;13765;51.166;4.466;2023-07-28T02:40:43;18.80;99.90
25973;DHT22;13765;51.166;4.466;2023-07-28T02:43:11;18.70;99.90
25973;DHT22;13765;51.166;4.466;2023-07-28T02:45:37;18.80;99.90
25973;DHT22;13765;51.166;4.466;2023-07-28T02:48:05;18.70;99.90
25973;DHT22;13765;51.166;4.466;2023-07-28T02:50:31;18.70;99.90
25973;DHT22;13765;51.166;4.466;2023-07-28T02:52:56;18.70;99.90
25973;DHT22;13765;51.166;4.466;2023-07-28T02:55:22;18.70;99.90
25973;DHT22;13765;51.166;4.466;2023-07-28T02:57:47;18.60;99.90
25973;DHT22;13765;51.166;4.466;2023-07-28T03:00:13;18.80;99.90
25973;DHT22;13765;51.166;4.466;2023-07-28T03:02:39;18.80;99.90
25973;DHT22;13765;51.166;4.466;2023-07-28T03:05:05;18.80;99.90
25973;DHT22;13765;51.166;4.466;2023-07-28T03:07:36;18.70;99.90
25973;DHT22;13765;51.166;4.466;2023-07-28T03:10:02;18.70;99.90
25973;DHT22;13765;51.166;4.466;2023-07-28T03:12:30;18.80;99.90
25973;DHT22;13765;51.166;4.466;2023-07-28T03:14:58;18.80;99.90
25973;DHT22;13765;51.166;4.466;2023-07-28T03:17:25;18.70;99.90
25973;DHT22;13765;51.166;4.466;2023-07-28T03:19:53;18.80;99.90
25973;DHT22;13765;51.166;4.466;2023-07-28T03:22:21;18.80;99.90
25973;DHT22;13765;51.166;4.466;2023-07-28T03:24:47;18.70;99.90
25973;DHT22;13765;51.166;4.466;2023-07-28T03:27:15;18.70;99.90
25973;DHT22;13765;51.166;4.466;2023-07-28T03:29:41;18.70;99.90
25973;DHT22;13765;51.166;4.466;2023-07-28T03:32:09;18.70;99.90
25973;DHT22;13765;51.166;4.466;2023-07-28T03:34:35;18.70;99.90
25973;DHT22;13765;51.166;4.466;2023-07-28T03:37:03;18.80;99.90
25973;DHT22;13765;51.166;4.466;2023-07-28T03:39:28;18.80;99.90
25973;DHT22;13765;51.166;4.466;2023-07-28T03:41:59;18.80;99.90
25973;DHT22;13765;51.166;4.466;2023-07-28T03:44:25;18.70;99.90
25973;DHT22;13765;51.166;4.466;2023-07-28T03:46:51;18.70;99.90
25973;DHT22;13765;51.166;4.466;2023-07-28T03:49:16;18.70;99.90
25973;DHT22;13765;51.166;4.466;2023-07-28T03:51:42;18.70;99.90
25973;DHT22;13765;51.166;4.466;2023-07-28T03:54:10;18.70;99.90
25973;DHT22;13765;51.166;4.466;2023-07-28T03:56:35;18.70;99.90
25973;DHT22;13765;51.166;4.466;2023-07-28T03:59:01;18.80;99.90
25973;DHT22;13765;51.166;4.466;2023-07-28T04:01:26;18.80;99.90
25973;DHT22;13765;51.166;4.466;2023-07-28T04:03:54;18.80;99.90
25973;DHT22;13765;51.166;4.466;2023-07-28T04:06:42;18.80;99.90
25973;DHT22;13765;51.166;4.466;2023-07-28T04:09:12;18.80;99.90
25973;DHT22;13765;51.166;4.466;2023-07-28T04:11:38;18.80;99.90
25973;DHT22;13765;51.166;4.466;2023-07-28T04:14:04;18.80;99.90
25973;DHT22;13765;51.166;4.466;2023-07-28T04:16:32;18.80;99.90
25973;DHT22;13765;51.166;4.466;2023-07-28T04:19:01;18.80;99.90
25973;DHT22;13765;51.166;4.466;2023-07-28T04:21:27;18.80;99.90
25973;DHT22;13765;51.166;4.466;2023-07-28T04:23:52;18.90;99.90
25973;DHT22;13765;51.166;4.466;2023-07-28T04:26:21;18.90;99.90
25973;DHT22;13765;51.166;4.466;2023-07-28T04:28:49;18.90;99.90
25973;DHT22;13765;51.166;4.466;2023-07-28T04:31:17;18.90;99.90
25973;DHT22;13765;51.166;4.466;2023-07-28T04:33:43;18.90;99.90
25973;DHT22;13765;51.166;4.466;2023-07-28T04:36:09;18.90;99.90
25973;DHT22;13765;51.166;4.466;2023-07-28T04:38:35;18.80;99.90
25973;DHT22;13765;51.166;4.466;2023-07-28T04:41:00;18.80;99.90
25973;DHT22;13765;51.166;4.466;2023-07-28T04:43:26;18.90;99.90
25973;DHT22;13765;51.166;4.466;2023-07-28T04:45:52;19.00;99.90
25973;DHT22;13765;51.166;4.466;2023-07-28T04:48:17;18.90;99.90
25973;DHT22;13765;51.166;4.466;2023-07-28T04:50:44;18.90;99.90
25973;DHT22;13765;51.166;4.466;2023-07-28T04:53:12;19.00;99.90
25973;DHT22;13765;51.166;4.466;2023-07-28T04:55:40;19.00;99.90
25973;DHT22;13765;51.166;4.466;2023-07-28T04:58:06;19.00;99.90
25973;DHT22;13765;51.166;4.466;2023-07-28T05:00:32;19.00;99.90
25973;DHT22;13765;51.166;4.466;2023-07-28T05:02:57;19.00;99.90
25973;DHT22;13765;51.166;4.466;2023-07-28T05:05:23;19.00;99.90
25973;DHT22;13765;51.166;4.466;2023-07-28T05:07:49;19.00;99.90
25973;DHT22;13765;51.166;4.466;2023-07-28T05:10:19;18.90;99.90
25973;DHT22;13765;51.166;4.466;2023-07-28T05:12:47;18.90;99.90
25973;DHT22;13765;51.166;4.466;2023-07-28T05:15:14;18.80;99.90
25973;DHT22;13765;51.166;4.466;2023-07-28T05:17:42;18.80;99.90
25973;DHT22;13765;51.166;4.466;2023-07-28T05:20:08;18.80;99.90
25973;DHT22;13765;51.166;4.466;2023-07-28T05:22:34;18.80;99.90
25973;DHT22;13765;51.166;4.466;2023-07-28T05:25:02;18.90;99.90
25973;DHT22;13765;51.166;4.466;2023-07-28T05:27:33;18.90;99.90
25973;DHT22;13765;51.166;4.466;2023-07-28T05:29:58;19.10;99.90
25973;DHT22;13765;51.166;4.466;2023-07-28T05:32:24;19.10;99.90
25973;DHT22;13765;51.166;4.466;2023-07-28T05:34:52;19.10;99.90
25973;DHT22;13765;51.166;4.466;2023-07-28T05:37:18;19.20;99.90
25973;DHT22;13765;51.166;4.466;2023-07-28T05:39:46;19.20;99.90
25973;DHT22;13765;51.166;4.466;2023-07-28T05:42:12;19.20;99.90
25973;DHT22;13765;51.166;4.466;2023-07-28T05:44:42;19.20;99.90
25973;DHT22;13765;51.166;4.466;2023-07-28T05:47:10;19.20;99.90
25973;DHT22;13765;51.166;4.466;2023-07-28T05:49:38;19.20;99.90
25973;DHT22;13765;51.166;4.466;2023-07-28T05:52:07;19.20;99.90
25973;DHT22;13765;51.166;4.466;2023-07-28T05:54:32;19.20;99.90
25973;DHT22;13765;51.166;4.466;2023-07-28T05:57:00;19.10;99.90
25973;DHT22;13765;51.166;4.466;2023-07-28T05:59:26;19.20;99.90
25973;DHT22;13765;51.166;4.466;2023-07-28T06:01:51;19.20;99.90
25973;DHT22;13765;51.166;4.466;2023-07-28T06:04:19;19.20;99.90
25973;DHT22;13765;51.166;4.466;2023-07-28T06:06:45;19.30;99.90
25973;DHT22;13765;51.166;4.466;2023-07-28T06:09:10;19.30;99.90
25973;DHT22;13765;51.166;4.466;2023-07-28T06:11:38;19.30;99.90
25973;DHT22;13765;51.166;4.466;2023-07-28T06:14:04;19.30;99.90
25973;DHT22;13765;51.166;4.466;2023-07-28T06:16:29;19.40;99.90
25973;DHT22;13765;51.166;4.466;2023-07-28T06:18:56;19.40;99.90
25973;DHT22;13765;51.166;4.466;2023-07-28T06:21:24;19.50;99.90
25973;DHT22;13765;51.166;4.466;2023-07-28T06:23:50;19.60;99.90
25973;DHT22;13765;51.166;4.466;2023-07-28T06:26:18;19.70;99.90
25973;DHT22;13765;51.166;4.466;2023-07-28T06:28:44;19.70;99.90
25973;DHT22;13765;51.166;4.466;2023-07-28T06:31:10;19.80;99.90
25973;DHT22;13765;51.166;4.466;2023-07-28T06:33:36;19.70;99.90
25973;DHT22;13765;51.166;4.466;2023-07-28T06:36:04;19.70;99.90
25973;DHT22;13765;51.166;4.466;2023-07-28T06:38:33;19.70;99.90
25973;DHT22;13765;51.166;4.466;2023-07-28T06:41:03;19.80;99.90
25973;DHT22;13765;51.166;4.466;2023-07-28T06:43:29;19.80;99.90
25973;DHT22;13765;51.166;4.466;2023-07-28T06:45:57;19.80;99.90
25973;DHT22;13765;51.166;4.466;2023-07-28T06:48:22;19.80;99.90
25973;DHT22;13765;51.166;4.466;2023-07-28T06:50:50;19.90;99.90
25973;DHT22;13765;51.166;4.466;2023-07-28T06:53:19;20.10;99.90
25973;DHT22;13765;51.166;4.466;2023-07-28T06:55:46;20.20;99.90
25973;DHT22;13765;51.166;4.466;2023-07-28T06:58:12;20.10;99.90
25973;DHT22;13765;51.166;4.466;2023-07-28T07:00:40;20.20;99.90
25973;DHT22;13765;51.166;4.466;2023-07-28T07:03:05;20.30;99.90
25973;DHT22;13765;51.166;4.466;2023-07-28T07:05:31;20.30;99.90
25973;DHT22;13765;51.166;4.466;2023-07-28T07:08:00;20.30;99.90
25973;DHT22;13765;51.166;4.466;2023-07-28T07:10:27;20.20;99.90
25973;DHT22;13765;51.166;4.466;2023-07-28T07:12:52;20.20;99.90
25973;DHT22;13765;51.166;4.466;2023-07-28T07:15:18;20.10;99.90
25973;DHT22;13765;51.166;4.466;2023-07-28T07:17:46;20.10;99.90
25973;DHT22;13765;51.166;4.466;2023-07-28T07:20:11;20.30;99.90
25973;DHT22;13765;51.166;4.466;2023-07-28T07:22:37;20.40;99.90
25973;DHT22;13765;51.166;4.466;2023-07-28T07:25:05;20.60;99.90
25973;DHT22;13765;51.166;4.466;2023-07-28T07:27:34;20.60;99.90
25973;DHT22;13765;51.166;4.466;2023-07-28T07:30:00;20.90;99.90
25973;DHT22;13765;51.166;4.466;2023-07-28T07:32:28;21.20;99.90
25973;DHT22;13765;51.166;4.466;2023-07-28T07:34:53;21.40;99.90
25973;DHT22;13765;51.166;4.466;2023-07-28T07:37:19;21.60;99.90
25973;DHT22;13765;51.166;4.466;2023-07-28T07:39:45;21.70;99.90
25973;DHT22;13765;51.166;4.466;2023-07-28T07:42:10;21.70;99.90
25973;DHT22;13765;51.166;4.466;2023-07-28T07:44:37;21.80;99.90
25973;DHT22;13765;51.166;4.466;2023-07-28T07:47:14;21.80;99.90
25973;DHT22;13765;51.166;4.466;2023-07-28T07:49:41;21.90;99.90
25973;DHT22;13765;51.166;4.466;2023-07-28T07:52:10;22.00;99.90
25973;DHT22;13765;51.166;4.466;2023-07-28T07:54:38;21.90;99.90
25973;DHT22;13765;51.166;4.466;2023-07-28T07:57:04;21.80;99.90
25973;DHT22;13765;51.166;4.466;2023-07-28T07:59:32;21.80;99.90
25973;DHT22;13765;51.166;4.466;2023-07-28T08:01:59;21.90;99.90
25973;DHT22;13765;51.166;4.466;2023-07-28T08:04:28;22.00;99.90
25973;DHT22;13765;51.166;4.466;2023-07-28T08:06:56;22.20;99.90
25973;DHT22;13765;51.166;4.466;2023-07-28T08:09:22;22.40;99.90
25973;DHT22;13765;51.166;4.466;2023-07-28T08:11:51;22.60;99.90
25973;DHT22;13765;51.166;4.466;2023-07-28T08:14:20;22.70;99.90
25973;DHT22;13765;51.166;4.466;2023-07-28T08:16:46;22.70;99.90
25973;DHT22;13765;51.166;4.466;2023-07-28T08:19:14;22.80;99.90
25973;DHT22;13765;51.166;4.466;2023-07-28T08:21:39;22.80;99.90
25973;DHT22;13765;51.166;4.466;2023-07-28T08:24:07;22.80;99.90
25973;DHT22;13765;51.166;4.466;2023-07-28T08:26:33;22.70;99.90
25973;DHT22;13765;51.166;4.466;2023-07-28T08:28:59;22.40;99.90
25973;DHT22;13765;51.166;4.466;2023-07-28T08:31:27;22.20;99.90
25973;DHT22;13765;51.166;4.466;2023-07-28T08:33:53;22.30;99.90
25973;DHT22;13765;51.166;4.466;2023-07-28T08:36:21;22.40;99.90
25973;DHT22;13765;51.166;4.466;2023-07-28T08:38:46;22.50;99.90
25973;DHT22;13765;51.166;4.466;2023-07-28T08:41:12;22.40;99.90
25973;DHT22;13765;51.166;4.466;2023-07-28T08:43:39;22.50;99.90
25973;DHT22;13765;51.166;4.466;2023-07-28T08:46:05;22.70;99.90
25973;DHT22;13765;51.166;4.466;2023-07-28T08:48:31;22.80;99.90
25973;DHT22;13765;51.166;4.466;2023-07-28T08:50:58;23.00;99.90
25973;DHT22;13765;51.166;4.466;2023-07-28T08:53:28;23.00;99.90
25973;DHT22;13765;51.166;4.466;2023-07-28T08:55:56;23.30;99.90
25973;DHT22;13765;51.166;4.466;2023-07-28T08:58:24;24.00;99.90
25973;DHT22;13765;51.166;4.466;2023-07-28T09:00:51;24.10;99.90
25973;DHT22;13765;51.166;4.466;2023-07-28T09:03:20;24.00;99.90
25973;DHT22;13765;51.166;4.466;2023-07-28T09:05:47;24.10;99.90
25973;DHT22;13765;51.166;4.466;2023-07-28T09:08:16;24.00;99.90
25973;DHT22;13765;51.166;4.466;2023-07-28T09:10:45;23.70;99.90
25973;DHT22;13765;51.166;4.466;2023-07-28T09:13:17;23.90;99.90
25973;DHT22;13765;51.166;4.466;2023-07-28T09:15:45;24.20;99.90
25973;DHT22;13765;51.166;4.466;2023-07-28T09:18:16;24.20;99.90
25973;DHT22;13765;51.166;4.466;2023-07-28T09:20:42;24.40;99.90
25973;DHT22;13765;51.166;4.466;2023-07-28T09:23:12;24.30;99.90
25973;DHT22;13765;51.166;4.466;2023-07-28T09:25:38;24.30;99.90
25973;DHT22;13765;51.166;4.466;2023-07-28T09:28:04;24.40;99.90
25973;DHT22;13765;51.166;4.466;2023-07-28T09:30:47;24.50;99.90
25973;DHT22;13765;51.166;4.466;2023-07-28T09:33:28;24.90;99.90
25973;DHT22;13765;51.166;4.466;2023-07-28T09:35:54;24.90;99.90
25973;DHT22;13765;51.166;4.466;2023-07-28T09:38:30;24.90;99.90
25973;DHT22;13765;51.166;4.466;2023-07-28T09:40:57;25.00;99.90
25973;DHT22;13765;51.166;4.466;2023-07-28T09:43:26;25.00;99.90
25973;DHT22;13765;51.166;4.466;2023-07-28T09:45:54;25.10;99.90
25973;DHT22;13765;51.166;4.466;2023-07-28T09:48:21;24.90;99.90
25973;DHT22;13765;51.166;4.466;2023-07-28T09:50:49;24.80;99.90
25973;DHT22;13765;51.166;4.466;2023-07-28T09:53:16;24.90;99.90
25973;DHT22;13765;51.166;4.466;2023-07-28T09:55:42;25.00;99.90
25973;DHT22;13765;51.166;4.466;2023-07-28T09:58:10;25.20;99.90
25973;DHT22;13765;51.166;4.466;2023-07-28T10:00:40;25.70;99.90
25973;DHT22;13765;51.166;4.466;2023-07-28T10:03:07;26.00;99.90
25973;DHT22;13765;51.166;4.466;2023-07-28T10:05:34;26.00;99.90
25973;DHT22;13765;51.166;4.466;2023-07-28T10:08:00;26.00;99.90
25973;DHT22;13765;51.166;4.466;2023-07-28T10:10:29;25.70;99.90
25973;DHT22;13765;51.166;4.466;2023-07-28T10:13:00;25.30;99.90
25973;DHT22;13765;51.166;4.466;2023-07-28T10:15:31;25.40;99.90
25973;DHT22;13765;51.166;4.466;2023-07-28T10:17:58;25.40;99.90
25973;DHT22;13765;51.166;4.466;2023-07-28T10:20:38;25.30;99.90
25973;DHT22;13765;51.166;4.466;2023-07-28T10:23:20;24.90;99.90
25973;DHT22;13765;51.166;4.466;2023-07-28T10:25:47;24.60;99.90
25973;DHT22;13765;51.166;4.466;2023-07-28T10:28:31;24.30;99.90
25973;DHT22;13765;51.166;4.466;2023-07-28T10:30:59;24.10;99.90
25973;DHT22;13765;51.166;4.466;2023-07-28T10:33:33;23.70;99.90
25973;DHT22;13765;51.166;4.466;2023-07-28T10:38:42;23.20;99.90
25973;DHT22;13765;51.166;4.466;2023-07-28T10:41:17;23.00;99.90
25973;DHT22;13765;51.166;4.466;2023-07-28T10:43:44;22.90;99.90
25973;DHT22;13765;51.166;4.466;2023-07-28T10:46:13;22.80;99.90
25973;DHT22;13765;51.166;4.466;2023-07-28T10:48:48;22.70;99.90
25973;DHT22;13765;51.166;4.466;2023-07-28T10:51:25;22.60;99.90
25973;DHT22;13765;51.166;4.466;2023-07-28T10:53:59;22.50;99.90
25973;DHT22;13765;51.166;4.466;2023-07-28T10:56:25;22.60;99.90
25973;DHT22;13765;51.166;4.466;2023-07-28T10:58:58;22.60;99.90
25973;DHT22;13765;51.166;4.466;2023-07-28T11:01:34;22.60;99.90
25973;DHT22;13765;51.166;4.466;2023-07-28T11:04:08;22.70;99.90
25973;DHT22;13765;51.166;4.466;2023-07-28T11:06:44;22.80;99.90
25973;DHT22;13765;51.166;4.466;2023-07-28T11:09:12;22.70;99.90
25973;DHT22;13765;51.166;4.466;2023-07-28T11:11:41;22.90;99.90
25973;DHT22;13765;51.166;4.466;2023-07-28T11:14:09;23.20;99.90
25973;DHT22;13765;51.166;4.466;2023-07-28T11:16:38;23.20;99.90
25973;DHT22;13765;51.166;4.466;2023-07-28T11:19:09;23.40;99.90
25973;DHT22;13765;51.166;4.466;2023-07-28T11:21:42;23.50;99.90
25973;DHT22;13765;51.166;4.466;2023-07-28T11:24:08;24.00;99.90
25973;DHT22;13765;51.166;4.466;2023-07-28T11:26:38;24.20;99.90
25973;DHT22;13765;51.166;4.466;2023-07-28T11:29:04;24.20;99.90
25973;DHT22;13765;51.166;4.466;2023-07-28T11:31:30;23.80;99.90
25973;DHT22;13765;51.166;4.466;2023-07-28T11:34:00;23.70;99.90
25973;DHT22;13765;51.166;4.466;2023-07-28T11:36:28;23.40;99.90
25973;DHT22;13765;51.166;4.466;2023-07-28T11:38:55;23.10;99.90
25973;DHT22;13765;51.166;4.466;2023-07-28T11:41:21;23.10;99.90
25973;DHT22;13765;51.166;4.466;2023-07-28T11:43:50;23.30;99.90
25973;DHT22;13765;51.166;4.466;2023-07-28T11:46:37;23.60;99.90
25973;DHT22;13765;51.166;4.466;2023-07-28T11:49:18;23.80;99.90
25973;DHT22;13765;51.166;4.466;2023-07-28T11:51:56;24.00;99.90
25973;DHT22;13765;51.166;4.466;2023-07-28T11:54:26;23.90;99.90
25973;DHT22;13765;51.166;4.466;2023-07-28T11:56:57;24.00;99.90
25973;DHT22;13765;51.166;4.466;2023-07-28T11:59:23;24.40;99.90
25973;DHT22;13765;51.166;4.466;2023-07-28T12:02:00;24.60;99.90
25973;DHT22;13765;51.166;4.466;2023-07-28T12:04:39;24.80;99.90
25973;DHT22;13765;51.166;4.466;2023-07-28T12:07:16;24.70;99.90
25973;DHT22;13765;51.166;4.466;2023-07-28T12:12:15;24.70;99.90
25973;DHT22;13765;51.166;4.466;2023-07-28T12:14:46;25.00;99.90
25973;DHT22;13765;51.166;4.466;2023-07-28T12:17:21;25.30;99.90
25973;DHT22;13765;51.166;4.466;2023-07-28T12:19:59;25.40;99.90
25973;DHT22;13765;51.166;4.466;2023-07-28T12:22:31;25.20;99.90
25973;DHT22;13765;51.166;4.466;2023-07-28T12:24:57;25.20;99.90
25973;DHT22;13765;51.166;4.466;2023-07-28T12:27:23;25.60;99.90
25973;DHT22;13765;51.166;4.466;2023-07-28T12:29:50;25.90;99.90
25973;DHT22;13765;51.166;4.466;2023-07-28T12:32:16;26.10;99.90
25973;DHT22;13765;51.166;4.466;2023-07-28T12:34:42;26.00;99.90
25973;DHT22;13765;51.166;4.466;2023-07-28T12:37:07;25.90;99.90
25973;DHT22;13765;51.166;4.466;2023-07-28T12:39:38;25.70;99.90
25973;DHT22;13765;51.166;4.466;2023-07-28T12:42:06;25.30;99.90
25973;DHT22;13765;51.166;4.466;2023-07-28T12:44:35;25.20;99.90
25973;DHT22;13765;51.166;4.466;2023-07-28T12:47:01;25.20;99.90
25973;DHT22;13765;51.166;4.466;2023-07-28T12:49:27;25.10;99.90
25973;DHT22;13765;51.166;4.466;2023-07-28T12:52:01;25.20;99.90
25973;DHT22;13765;51.166;4.466;2023-07-28T12:54:32;25.20;99.90
25973;DHT22;13765;51.166;4.466;2023-07-28T12:57:01;25.00;99.90
25973;DHT22;13765;51.166;4.466;2023-07-28T12:59:27;25.10;99.90
25973;DHT22;13765;51.166;4.466;2023-07-28T13:01:54;25.20;99.90
25973;DHT22;13765;51.166;4.466;2023-07-28T13:04:19;25.40;99.90
25973;DHT22;13765;51.166;4.466;2023-07-28T13:06:45;25.00;99.90
25973;DHT22;13765;51.166;4.466;2023-07-28T13:09:11;25.00;99.90
25973;DHT22;13765;51.166;4.466;2023-07-28T13:11:36;25.10;99.90
25973;DHT22;13765;51.166;4.466;2023-07-28T13:14:02;24.90;99.90
25973;DHT22;13765;51.166;4.466;2023-07-28T13:16:28;24.90;99.90
25973;DHT22;13765;51.166;4.466;2023-07-28T13:18:55;24.60;99.90
25973;DHT22;13765;51.166;4.466;2023-07-28T13:21:25;24.70;99.90
25973;DHT22;13765;51.166;4.466;2023-07-28T13:23:53;24.90;99.90
25973;DHT22;13765;51.166;4.466;2023-07-28T13:26:18;25.20;99.90
25973;DHT22;13765;51.166;4.466;2023-07-28T13:28:46;25.00;99.90
25973;DHT22;13765;51.166;4.466;2023-07-28T13:31:17;24.90;99.90
25973;DHT22;13765;51.166;4.466;2023-07-28T13:33:45;24.80;99.90
25973;DHT22;13765;51.166;4.466;2023-07-28T13:36:12;25.00;99.90
25973;DHT22;13765;51.166;4.466;2023-07-28T13:38:37;25.30;99.90
25973;DHT22;13765;51.166;4.466;2023-07-28T13:41:05;25.40;99.90
25973;DHT22;13765;51.166;4.466;2023-07-28T13:43:32;25.50;99.90
25973;DHT22;13765;51.166;4.466;2023-07-28T13:46:01;25.50;99.90
25973;DHT22;13765;51.166;4.466;2023-07-28T13:48:30;25.50;99.90
25973;DHT22;13765;51.166;4.466;2023-07-28T13:50:58;25.70;99.90
25973;DHT22;13765;51.166;4.466;2023-07-28T13:53:24;26.00;99.90
25973;DHT22;13765;51.166;4.466;2023-07-28T13:55:52;26.20;99.90
25973;DHT22;13765;51.166;4.466;2023-07-28T13:58:21;26.40;99.90
25973;DHT22;13765;51.166;4.466;2023-07-28T14:00:48;26.60;99.90
25973;DHT22;13765;51.166;4.466;2023-07-28T14:03:14;26.70;99.90
25973;DHT22;13765;51.166;4.466;2023-07-28T14:05:43;26.90;99.90
25973;DHT22;13765;51.166;4.466;2023-07-28T14:08:09;26.50;99.90
25973;DHT22;13765;51.166;4.466;2023-07-28T14:10:38;26.30;99.90
25973;DHT22;13765;51.166;4.466;2023-07-28T14:13:04;26.10;99.90
25973;DHT22;13765;51.166;4.466;2023-07-28T14:15:29;25.90;99.90
25973;DHT22;13765;51.166;4.466;2023-07-28T14:18:00;26.20;99.90
25973;DHT22;13765;51.166;4.466;2023-07-28T14:20:25;26.20;99.90
25973;DHT22;13765;51.166;4.466;2023-07-28T14:22:51;26.20;99.90
25973;DHT22;13765;51.166;4.466;2023-07-28T14:25:17;26.30;99.90
25973;DHT22;13765;51.166;4.466;2023-07-28T14:27:47;26.10;99.90
25973;DHT22;13765;51.166;4.466;2023-07-28T14:30:12;25.90;99.90
25973;DHT22;13765;51.166;4.466;2023-07-28T14:32:40;25.50;99.90
25973;DHT22;13765;51.166;4.466;2023-07-28T14:35:09;25.10;99.90
25973;DHT22;13765;51.166;4.466;2023-07-28T14:37:34;25.00;99.90
25973;DHT22;13765;51.166;4.466;2023-07-28T14:40:05;24.90;99.90
25973;DHT22;13765;51.166;4.466;2023-07-28T14:42:31;24.60;99.90
25973;DHT22;13765;51.166;4.466;2023-07-28T14:45:01;24.40;99.90
25973;DHT22;13765;51.166;4.466;2023-07-28T14:47:27;24.30;99.90
25973;DHT22;13765;51.166;4.466;2023-07-28T14:49:52;24.50;99.90
25973;DHT22;13765;51.166;4.466;2023-07-28T14:52:18;24.90;99.90
25973;DHT22;13765;51.166;4.466;2023-07-28T14:54:44;25.20;99.90
25973;DHT22;13765;51.166;4.466;2023-07-28T14:57:09;25.70;99.90
25973;DHT22;13765;51.166;4.466;2023-07-28T14:59:40;25.90;99.90
25973;DHT22;13765;51.166;4.466;2023-07-28T15:02:05;26.20;99.90
25973;DHT22;13765;51.166;4.466;2023-07-28T15:04:35;26.50;99.90
25973;DHT22;13765;51.166;4.466;2023-07-28T15:07:01;26.60;99.90
25973;DHT22;13765;51.166;4.466;2023-07-28T15:09:27;27.00;99.90
25973;DHT22;13765;51.166;4.466;2023-07-28T15:11:55;27.50;99.90
25973;DHT22;13765;51.166;4.466;2023-07-28T15:14:22;27.70;99.90
25973;DHT22;13765;51.166;4.466;2023-07-28T15:16:48;27.50;99.90
25973;DHT22;13765;51.166;4.466;2023-07-28T15:19:14;27.50;99.90
25973;DHT22;13765;51.166;4.466;2023-07-28T15:21:42;27.40;99.90
25973;DHT22;13765;51.166;4.466;2023-07-28T15:24:10;27.30;99.90
25973;DHT22;13765;51.166;4.466;2023-07-28T15:26:35;27.20;99.90
25973;DHT22;13765;51.166;4.466;2023-07-28T15:29:07;27.40;99.90
25973;DHT22;13765;51.166;4.466;2023-07-28T15:31:32;27.20;99.90
25973;DHT22;13765;51.166;4.466;2023-07-28T15:34:00;27.10;99.90
25973;DHT22;13765;51.166;4.466;2023-07-28T15:36:26;27.20;99.90
25973;DHT22;13765;51.166;4.466;2023-07-28T15:38:51;27.10;99.90
25973;DHT22;13765;51.166;4.466;2023-07-28T15:41:19;27.20;99.90
25973;DHT22;13765;51.166;4.466;2023-07-28T15:43:45;27.10;99.90
25973;DHT22;13765;51.166;4.466;2023-07-28T15:46:10;27.00;99.90